KPPA/PPA METAR and TAF weather

Enter ICAO airport designator
Station Type Date Time Source
KPPA METAR 2020/09/18 19:35 UTC NOAA

KPPA 181935Z AUTO 17004KT 10SM CLR 28/09 A3027 RMK AO2 T02750088


Station Type Date Time Source
KPPA Decoded METAR 2020/09/18 19:35 UTC NOAA

Pampa, Perry Lefors Field Airport, TX, United States (KPPA) 35-36-46N 100-59-46W
Sep 18, 2020 - 03:35 PM EDT / 2020.09.18 1935 UTC
Wind: from the S (170 degrees) at 5 MPH (4 KT):0
Visibility: 10 mile(s):0
Sky conditions: clear
Temperature: 81.5 F (27.5 C)
Dew Point: 47.8 F (8.8 C)
Relative Humidity: 30%
Pressure (altimeter): 30.27 in. Hg (1025 hPa)
ob: KPPA 181935Z AUTO 17004KT 10SM CLR 28/09 A3027 RMK AO2 T02750088
cycle: 19

Station Type Date Time Source
KPPA TAF UTC NOAA

Error!

Example: see airport list